Time;durP1;ratioP1;P1;durP2;ratioP2;P2;SDS_P1;SDS_P2;PMS_P1;PMS_P2;Temp;Humidity;BMP_temperature;BMP_pressure;BME280_temperature;BME280_humidity;BME280_pressure;Samples;Min_cycle;Max_cycle;Signal;HPM_P1;HPM_P2
2023/11/24 00:00:11;;;;;;;;;;;;;;;19.04;67.04;100415.41;7391882;19;1633;-46
2023/11/24 00:02:39;;;;;;;;;;;;;;;19.05;67.25;100411.72;7387875;19;1714;-45
2023/11/24 00:05:09;;;;;;;;;;;;;;;18.99;67.43;100404.25;7390840;19;1880;-46
2023/11/24 00:07:40;;;;;;;;;;;;;;;18.97;67.65;100393.69;7391499;19;1484;-46
2023/11/24 00:10:11;;;;;;;;;;;;;;;19.00;67.50;100392.53;7389989;19;1545;-46
2023/11/24 00:12:39;;;;;;;;;;;;;;;19.03;67.27;100382.38;7390261;19;1513;-46
2023/11/24 00:15:09;;;;;;;;;;;;;;;18.97;67.52;100377.59;7391563;19;1470;-46
2023/11/24 00:17:37;;;;;;;;;;;;;;;19.01;67.36;100379.00;7391634;19;1203;-46
2023/11/24 00:20:07;;;;;;;;;;;;;;;18.99;67.34;100389.03;7390284;19;2018;-46
2023/11/24 00:22:36;;;;;;;;;;;;;;;19.03;67.12;100393.09;7390902;19;1646;-46
2023/11/24 00:25:04;;;;;;;;;;;;;;;18.98;67.16;100382.00;7388595;19;1861;-46
2023/11/24 00:27:35;;;;;;;;;;;;;;;19.08;66.92;100368.56;7390786;19;1587;-46
2023/11/24 00:30:04;;;;;;;;;;;;;;;19.11;66.91;100362.06;7390502;19;1498;-46
2023/11/24 00:32:33;;;;;;;;;;;;;;;19.08;66.79;100342.59;7392352;19;1025;-46
2023/11/24 00:35:01;;;;;;;;;;;;;;;19.05;66.97;100342.88;7391024;19;1656;-45
2023/11/24 00:37:29;;;;;;;;;;;;;;;19.03;67.13;100336.00;7390620;19;1504;-45
2023/11/24 00:39:55;;;;;;;;;;;;;;;18.98;67.13;100331.06;7390206;19;1520;-46
2023/11/24 00:42:23;;;;;;;;;;;;;;;18.51;67.22;100252.50;7396751;19;1587;-46
2023/11/24 00:44:54;;;;;;;;;;;;;;;18.96;67.30;100324.16;7397363;19;1843;-46
2023/11/24 00:47:23;;;;;;;;;;;;;;;18.95;67.20;100315.28;7397761;19;1513;-46
2023/11/24 00:49:51;;;;;;;;;;;;;;;18.98;67.17;100306.97;7396232;19;1498;-46
2023/11/24 00:52:19;;;;;;;;;;;;;;;18.96;67.24;100306.25;7396305;19;1346;-46
2023/11/24 00:54:48;;;;;;;;;;;;;;;18.98;67.08;100290.00;7382147;19;2018;-46
2023/11/24 00:57:16;;;;;;;;;;;;;;;19.04;66.78;100292.13;7396428;19;1616;-46
2023/11/24 00:59:44;;;;;;;;;;;;;;;19.10;66.61;100293.34;7393363;19;2040;-46
2023/11/24 01:02:15;;;;;;;;;;;;;;;19.04;66.79;100268.00;7398830;19;1081;-46
2023/11/24 01:04:44;;;;;;;;;;;;;;;18.99;67.05;100260.41;7396534;19;1945;-46
2023/11/24 01:07:13;;;;;;;;;;;;;;;18.97;67.09;100250.84;7394094;19;2048;-46
2023/11/24 01:09:41;;;;;;;;;;;;;;;18.92;67.02;100243.25;7396983;19;1496;-46
2023/11/24 01:12:10;;;;;;;;;;;;;;;18.96;67.23;100259.84;7395706;19;1809;-44
2023/11/24 01:14:35;;;;;;;;;;;;;;;18.84;67.34;100237.75;7397190;19;1484;-46
2023/11/24 01:17:04;;;;;;;;;;;;;;;18.85;67.43;100255.53;7396975;19;1608;-46
2023/11/24 01:19:35;;;;;;;;;;;;;;;18.89;67.31;100243.53;7396334;19;1536;-46
2023/11/24 01:22:03;;;;;;;;;;;;;;;18.85;67.45;100239.47;7395378;19;1488;-46
2023/11/24 01:24:31;;;;;;;;;;;;;;;18.86;67.36;100225.06;7395924;19;1815;-46
2023/11/24 01:26:59;;;;;;;;;;;;;;;18.83;67.21;100217.31;7395645;19;1544;-46
2023/11/24 01:29:32;;;;;;;;;;;;;;;18.83;67.38;100247.63;7395653;19;1744;-46
2023/11/24 01:32:00;;;;;;;;;;;;;;;18.82;67.29;100213.81;7397812;19;1469;-46
2023/11/24 01:34:28;;;;;;;;;;;;;;;18.86;67.03;100204.50;7395909;19;1477;-46
2023/11/24 01:36:59;;;;;;;;;;;;;;;18.94;66.88;100206.44;7394573;19;1426;-46
2023/11/24 01:39:28;;;;;;;;;;;;;;;18.90;66.94;100199.69;7395303;19;1942;-46
2023/11/24 01:41:56;;;;;;;;;;;;;;;18.97;66.85;100195.41;7394361;19;1505;-46
2023/11/24 01:44:25;;;;;;;;;;;;;;;19.02;66.62;100203.84;7396616;19;1623;-46
2023/11/24 01:46:54;;;;;;;;;;;;;;;18.96;66.79;100183.00;7393772;19;1867;-46
2023/11/24 01:49:22;;;;;;;;;;;;;;;18.85;66.99;100181.34;7394475;19;1504;-46
2023/11/24 01:51:51;;;;;;;;;;;;;;;18.89;67.19;100173.88;7393905;19;1350;-46
2023/11/24 01:54:22;;;;;;;;;;;;;;;18.87;67.19;100179.38;7380062;19;1749;-46
2023/11/24 01:56:51;;;;;;;;;;;;;;;18.78;67.15;100161.50;7394937;19;1616;-46
2023/11/24 01:59:20;;;;;;;;;;;;;;;18.85;67.25;100176.00;7392086;19;1571;-46
2023/11/24 02:01:48;;;;;;;;;;;;;;;18.85;67.12;100164.44;7396133;19;1560;-45
2023/11/24 02:04:16;;;;;;;;;;;;;;;18.82;67.36;100159.38;7394963;19;1548;-46
2023/11/24 02:06:45;;;;;;;;;;;;;;;18.84;67.38;100152.91;7393140;19;1849;-46
2023/11/24 02:09:13;;;;;;;;;;;;;;;18.94;67.26;100157.34;7394780;19;1602;-46
2023/11/24 02:11:44;;;;;;;;;;;;;;;18.92;67.67;100133.41;7394608;19;1573;-46
2023/11/24 02:14:13;;;;;;;;;;;;;;;18.93;67.43;100139.59;7393804;19;1627;-46
2023/11/24 02:16:41;;;;;;;;;;;;;;;18.91;67.57;100152.28;7394773;19;1541;-46
2023/11/24 02:19:09;;;;;;;;;;;;;;;18.85;67.90;100133.13;7394732;19;1964;-46
2023/11/24 02:21:38;;;;;;;;;;;;;;;18.85;67.81;100132.31;7394783;19;1561;-46
2023/11/24 02:24:09;;;;;;;;;;;;;;;19.22;66.73;100128.69;7394260;19;1817;-46
2023/11/24 02:26:38;;;;;;;;;;;;;;;19.92;64.56;100114.53;7392022;19;1860;-46
2023/11/24 02:29:08;;;;;;;;;;;;;;;20.75;62.55;100105.91;7393609;19;1524;-46
2023/11/24 02:31:37;;;;;;;;;;;;;;;21.00;61.80;100104.13;7394444;19;1298;-46
2023/11/24 02:34:07;;;;;;;;;;;;;;;21.19;61.15;100106.53;7393428;19;1509;-46
2023/11/24 02:36:37;;;;;;;;;;;;;;;21.38;60.75;100113.41;7393400;19;1497;-46
2023/11/24 02:39:08;;;;;;;;;;;;;;;21.52;60.14;100084.22;7393964;19;1477;-46
2023/11/24 02:41:37;;;;;;;;;;;;;;;21.63;60.03;100089.25;7391643;19;1851;-46
2023/11/24 02:44:05;;;;;;;;;;;;;;;21.55;60.16;100083.88;7393828;19;1900;-46
2023/11/24 02:46:34;;;;;;;;;;;;;;;21.63;60.03;100079.34;7391950;19;1857;-46
2023/11/24 02:49:02;;;;;;;;;;;;;;;21.68;60.04;100076.13;7393271;19;1417;-46
2023/11/24 02:51:31;;;;;;;;;;;;;;;21.68;59.77;100065.34;7391829;19;1594;-46
2023/11/24 02:53:59;;;;;;;;;;;;;;;21.67;60.11;100073.63;7378837;19;1962;-46
2023/11/24 02:56:30;;;;;;;;;;;;;;;21.80;59.65;100064.00;7392630;19;1489;-46
2023/11/24 02:58:59;;;;;;;;;;;;;;;21.98;59.21;100060.25;7393379;19;1528;-45
2023/11/24 03:01:27;;;;;;;;;;;;;;;21.82;59.33;100050.38;7394915;19;1117;-46
2023/11/24 03:03:55;;;;;;;;;;;;;;;21.85;59.45;100053.56;7391372;19;1498;-46
2023/11/24 03:06:23;;;;;;;;;;;;;;;21.99;59.22;100045.78;7392404;19;1861;-46
2023/11/24 03:08:52;;;;;;;;;;;;;;;21.96;59.41;100040.75;7393071;19;1536;-46
2023/11/24 03:11:21;;;;;;;;;;;;;;;21.95;59.26;100041.78;7391942;19;1533;-45
2023/11/24 03:13:52;;;;;;;;;;;;;;;21.51;59.08;99970.41;7392096;19;1430;-46
2023/11/24 03:16:20;;;;;;;;;;;;;;;21.95;59.21;100022.94;7392761;19;1532;-46
2023/11/24 03:18:49;;;;;;;;;;;;;;;21.89;59.45;100023.63;7393775;19;1530;-46
2023/11/24 03:21:17;;;;;;;;;;;;;;;21.97;59.16;100020.91;7391074;19;1634;-45
2023/11/24 03:23:45;;;;;;;;;;;;;;;22.02;58.95;100016.69;7393156;19;1536;-45
2023/11/24 03:26:14;;;;;;;;;;;;;;;22.04;58.97;100013.78;7390427;19;1866;-46
2023/11/24 03:28:42;;;;;;;;;;;;;;;21.72;59.84;100012.88;7392027;19;1446;-46
2023/11/24 03:31:13;;;;;;;;;;;;;;;21.97;59.36;100007.44;7393008;19;1579;-45
2023/11/24 03:33:42;;;;;;;;;;;;;;;22.12;59.03;100007.53;7392680;19;1497;-45
2023/11/24 03:36:10;;;;;;;;;;;;;;;21.90;59.26;100011.81;7392536;19;1410;-45
2023/11/24 03:38:39;;;;;;;;;;;;;;;21.98;59.49;100001.03;7393773;19;1530;-45
2023/11/24 03:41:07;;;;;;;;;;;;;;;22.14;58.72;100000.13;7389182;19;1659;-46
2023/11/24 03:43:36;;;;;;;;;;;;;;;21.84;59.39;99990.00;7391268;19;1438;-45
2023/11/24 03:46:04;;;;;;;;;;;;;;;22.00;59.39;99975.63;7390707;19;1844;-46
2023/11/24 03:48:35;;;;;;;;;;;;;;;22.16;58.95;99977.41;7392569;19;1548;-48
2023/11/24 03:51:04;;;;;;;;;;;;;;;21.94;59.45;99967.41;7392481;19;1567;-46
2023/11/24 03:53:33;;;;;;;;;;;;;;;21.82;59.69;99975.84;7392253;19;1524;-45
2023/11/24 03:56:01;;;;;;;;;;;;;;;21.58;60.17;99946.31;7376526;19;1608;-46
2023/11/24 03:58:29;;;;;;;;;;;;;;;21.09;61.55;99959.81;7392069;19;1534;-46
2023/11/24 04:00:58;;;;;;;;;;;;;;;20.75;62.39;99968.88;7391456;19;1501;-46
2023/11/24 04:03:26;;;;;;;;;;;;;;;20.48;62.92;99946.66;7391695;19;1540;-45
2023/11/24 04:05:57;;;;;;;;;;;;;;;20.34;63.22;99931.19;7391283;19;1854;-46
2023/11/24 04:08:25;;;;;;;;;;;;;;;20.25;63.48;99941.91;7393109;19;1611;-46
2023/11/24 04:10:54;;;;;;;;;;;;;;;20.16;63.51;99940.19;7391342;19;1406;-46
2023/11/24 04:13:22;;;;;;;;;;;;;;;20.10;63.51;99926.59;7390559;19;1547;-46
2023/11/24 04:15:50;;;;;;;;;;;;;;;20.02;63.64;99924.72;7396229;19;1465;-46
2023/11/24 04:18:19;;;;;;;;;;;;;;;19.97;63.80;99917.16;7398104;19;1563;-46
2023/11/24 04:20:47;;;;;;;;;;;;;;;19.91;63.88;99914.28;7396186;19;2223;-46
2023/11/24 04:23:18;;;;;;;;;;;;;;;19.81;64.00;99906.34;7397337;19;1651;-46
2023/11/24 04:25:46;;;;;;;;;;;;;;;19.74;64.18;99890.09;7397569;19;1835;-46
2023/11/24 04:28:16;;;;;;;;;;;;;;;19.73;64.43;99893.75;7397280;19;1571;-45
2023/11/24 04:30:44;;;;;;;;;;;;;;;19.68;64.61;99888.00;7397686;19;1478;-46
2023/11/24 04:33:13;;;;;;;;;;;;;;;19.64;64.82;99890.16;7397678;19;1560;-46
2023/11/24 04:35:41;;;;;;;;;;;;;;;19.74;64.64;99898.13;7397961;19;1490;-46
2023/11/24 04:38:09;;;;;;;;;;;;;;;19.78;64.27;99888.75;7397887;19;1363;-46
2023/11/24 04:40:40;;;;;;;;;;;;;;;19.80;64.11;99907.38;7397020;19;1501;-46
2023/11/24 04:43:09;;;;;;;;;;;;;;;19.72;64.27;99912.72;7396691;19;1201;-46
2023/11/24 04:45:39;;;;;;;;;;;;;;;19.64;64.19;99892.84;7396785;19;1894;-45
2023/11/24 04:48:08;;;;;;;;;;;;;;;19.68;64.48;99899.56;7396045;19;1504;-45
2023/11/24 04:50:37;;;;;;;;;;;;;;;19.63;64.54;99898.38;7394481;19;1469;-46
2023/11/24 04:53:06;;;;;;;;;;;;;;;19.63;64.49;99882.28;7392798;19;1578;-46
2023/11/24 04:55:34;;;;;;;;;;;;;;;19.62;64.50;99896.72;7381443;19;1521;-46
2023/11/24 04:58:05;;;;;;;;;;;;;;;19.65;64.53;99896.38;7397180;19;1551;-45
2023/11/24 05:00:33;;;;;;;;;;;;;;;19.56;64.96;99900.03;7395758;19;1441;-46
2023/11/24 05:03:01;;;;;;;;;;;;;;;19.54;65.13;99891.31;7395299;19;1540;-46
2023/11/24 05:05:30;;;;;;;;;;;;;;;19.52;65.07;99885.25;7396413;19;1856;-46
2023/11/24 05:07:58;;;;;;;;;;;;;;;19.51;65.23;99878.22;7392936;19;1845;-46
2023/11/24 05:10:26;;;;;;;;;;;;;;;19.45;65.41;99883.19;7395645;19;1559;-46
2023/11/24 05:12:54;;;;;;;;;;;;;;;19.46;65.41;99876.03;7396049;19;1489;-45
2023/11/24 05:15:25;;;;;;;;;;;;;;;19.46;65.46;99851.88;7396030;19;1500;-46
2023/11/24 05:17:54;;;;;;;;;;;;;;;19.46;65.29;99868.81;7398029;19;1549;-46
2023/11/24 05:20:24;;;;;;;;;;;;;;;19.39;65.74;99867.75;7397465;19;1735;-46
2023/11/24 05:22:52;;;;;;;;;;;;;;;19.42;65.52;99861.25;7395194;19;1843;-46
2023/11/24 05:25:20;;;;;;;;;;;;;;;19.50;65.28;99873.84;7395970;19;1706;-46
2023/11/24 05:27:49;;;;;;;;;;;;;;;19.38;65.76;99867.94;7391956;19;1864;-46
2023/11/24 05:30:17;;;;;;;;;;;;;;;19.36;65.86;99868.09;7394449;19;1433;-46
2023/11/24 05:32:48;;;;;;;;;;;;;;;19.26;65.97;99868.19;7396596;19;1565;-46
2023/11/24 05:35:17;;;;;;;;;;;;;;;19.33;66.15;99868.41;7397490;19;1102;-46
2023/11/24 05:37:45;;;;;;;;;;;;;;;19.36;65.84;99845.78;7393630;19;1919;-46
2023/11/24 05:40:15;;;;;;;;;;;;;;;19.38;65.80;99849.16;7394135;19;2099;-45
2023/11/24 05:42:43;;;;;;;;;;;;;;;19.45;65.68;99885.88;7394677;19;1643;-45
2023/11/24 05:45:14;;;;;;;;;;;;;;;19.28;66.23;99850.13;7393181;19;1634;-46
2023/11/24 05:47:42;;;;;;;;;;;;;;;19.18;66.77;99861.94;7393040;19;1855;-45
2023/11/24 05:50:17;;;;;;;;;;;;;;;19.10;66.78;99851.19;7393608;19;1542;-46
2023/11/24 05:52:46;;;;;;;;;;;;;;;19.05;66.75;99849.81;7392508;19;1549;-45
2023/11/24 05:55:15;;;;;;;;;;;;;;;19.09;66.84;99855.69;7378691;19;1500;-46
2023/11/24 05:57:43;;;;;;;;;;;;;;;19.04;66.87;99853.50;7394591;19;1172;-45
2023/11/24 06:00:16;;;;;;;;;;;;;;;19.07;66.72;99866.56;7394420;19;1853;-45
2023/11/24 06:02:45;;;;;;;;;;;;;;;19.07;66.70;99863.88;7391994;19;1931;-46
2023/11/24 06:05:16;;;;;;;;;;;;;;;19.11;66.61;99859.06;7392532;19;1482;-45
2023/11/24 06:07:44;;;;;;;;;;;;;;;19.12;65.96;99868.78;7390265;19;1846;-45
2023/11/24 06:10:12;;;;;;;;;;;;;;;19.08;65.81;99870.94;7391374;19;1474;-45
2023/11/24 06:12:41;;;;;;;;;;;;;;;19.11;65.99;99867.09;7392644;19;1406;-44
2023/11/24 06:15:10;;;;;;;;;;;;;;;19.07;66.07;99858.53;7395023;19;1545;-46
2023/11/24 06:17:38;;;;;;;;;;;;;;;19.09;66.10;99861.06;7395550;19;1598;-44
2023/11/24 06:20:08;;;;;;;;;;;;;;;19.20;65.59;99865.28;7394563;19;1580;-45
2023/11/24 06:22:39;;;;;;;;;;;;;;;19.20;65.47;99858.13;7394198;19;1491;-45
2023/11/24 06:25:10;;;;;;;;;;;;;;;19.20;65.73;99857.25;7392953;19;1532;-45
2023/11/24 06:27:38;;;;;;;;;;;;;;;19.13;65.88;99840.97;7391635;19;1838;-45
2023/11/24 06:30:07;;;;;;;;;;;;;;;19.14;66.08;99858.75;7392414;19;1588;-45
2023/11/24 06:32:35;;;;;;;;;;;;;;;19.12;66.11;99854.53;7394361;19;1309;-45
2023/11/24 06:35:06;;;;;;;;;;;;;;;19.10;66.23;99851.19;7394227;19;1407;-45
2023/11/24 06:37:34;;;;;;;;;;;;;;;19.11;66.22;99831.44;7391500;19;1496;-45
2023/11/24 06:40:06;;;;;;;;;;;;;;;19.14;66.48;99839.13;7393028;19;1466;-45
2023/11/24 06:42:34;;;;;;;;;;;;;;;19.14;66.34;99831.09;7391808;19;1528;-45
2023/11/24 06:45:03;;;;;;;;;;;;;;;19.15;66.51;99840.84;7392601;19;1509;-45
2023/11/24 06:47:31;;;;;;;;;;;;;;;19.14;66.73;99837.31;7389858;19;1848;-45
2023/11/24 06:49:59;;;;;;;;;;;;;;;19.06;66.88;99831.91;7393327;19;1497;-45
2023/11/24 06:52:27;;;;;;;;;;;;;;;19.05;67.21;99827.53;7392793;19;1426;-46
2023/11/24 06:54:56;;;;;;;;;;;;;;;19.07;66.61;99821.00;7378836;19;1374;-45
2023/11/24 06:57:27;;;;;;;;;;;;;;;19.08;66.34;99820.03;7390575;19;1485;-45
2023/11/24 06:59:55;;;;;;;;;;;;;;;19.13;66.24;99834.78;7386779;19;1397;-45
2023/11/24 07:02:24;;;;;;;;;;;;;;;19.24;66.32;99824.63;7390265;19;1516;-45
2023/11/24 07:04:52;;;;;;;;;;;;;;;20.14;63.44;99812.53;7388332;19;1406;-44
2023/11/24 07:07:21;;;;;;;;;;;;;;;20.53;62.36;99810.03;7389219;19;1881;-45
2023/11/24 07:09:49;;;;;;;;;;;;;;;21.02;61.06;99801.06;7390287;19;1084;-44
2023/11/24 07:12:18;;;;;;;;;;;;;;;21.43;60.03;99791.03;7390935;19;1814;-44
2023/11/24 07:14:49;;;;;;;;;;;;;;;21.34;60.12;99783.97;7391658;19;1493;-44
2023/11/24 07:17:17;;;;;;;;;;;;;;;21.25;60.23;99779.66;7389772;19;1913;-45
2023/11/24 07:19:49;;;;;;;;;;;;;;;21.23;60.20;99770.94;7387439;19;1575;-45
2023/11/24 07:22:20;;;;;;;;;;;;;;;21.24;60.20;99756.47;7388360;19;1548;-45
2023/11/24 07:24:48;;;;;;;;;;;;;;;21.31;60.00;99757.44;7388956;19;1422;-45
2023/11/24 07:27:17;;;;;;;;;;;;;;;21.19;60.46;99758.84;7387878;19;1865;-45
2023/11/24 07:29:45;;;;;;;;;;;;;;;21.28;60.05;99752.41;7386695;19;1396;-45
2023/11/24 07:32:16;;;;;;;;;;;;;;;21.29;60.36;99755.94;7388372;19;1243;-45
2023/11/24 07:34:45;;;;;;;;;;;;;;;21.31;60.01;99751.22;7391856;19;1544;-45
2023/11/24 07:37:14;;;;;;;;;;;;;;;21.33;60.01;99735.75;7390213;19;1485;-45
2023/11/24 07:39:42;;;;;;;;;;;;;;;21.37;59.88;99755.91;7390586;19;1603;-45
2023/11/24 07:42:10;;;;;;;;;;;;;;;21.48;59.80;99754.69;7392802;19;1545;-45
2023/11/24 07:44:39;;;;;;;;;;;;;;;21.47;59.66;99750.31;7392905;19;1545;-45
2023/11/24 07:47:09;;;;;;;;;;;;;;;21.45;59.71;99743.28;7392843;19;1836;-45
2023/11/24 07:49:40;;;;;;;;;;;;;;;21.45;59.74;99742.47;7394570;19;1514;-45
2023/11/24 07:52:09;;;;;;;;;;;;;;;21.51;59.62;99741.75;7399549;19;1968;-45
2023/11/24 07:54:37;;;;;;;;;;;;;;;21.32;59.11;99737.59;7398173;19;1465;-45
2023/11/24 07:57:07;;;;;;;;;;;;;;;21.32;59.40;99742.97;7386263;19;1635;-45
2023/11/24 07:59:35;;;;;;;;;;;;;;;21.45;58.87;99747.84;7400373;19;1808;-45
2023/11/24 08:02:03;;;;;;;;;;;;;;;21.49;58.99;99742.91;7399577;19;1556;-45
2023/11/24 08:04:32;;;;;;;;;;;;;;;21.62;58.83;99753.94;7399786;19;1589;-45
2023/11/24 08:07:02;;;;;;;;;;;;;;;21.54;58.65;99738.69;7398744;19;1835;-45
2023/11/24 08:09:31;;;;;;;;;;;;;;;21.65;58.72;99726.69;7400271;19;1481;-45
2023/11/24 08:11:59;;;;;;;;;;;;;;;21.71;58.41;99728.66;7398858;19;1615;-45
2023/11/24 08:14:28;;;;;;;;;;;;;;;21.63;58.43;99723.34;7397135;19;1568;-45
2023/11/24 08:16:56;;;;;;;;;;;;;;;21.66;58.07;99717.59;7397986;19;1319;-45
2023/11/24 08:19:26;;;;;;;;;;;;;;;21.71;57.90;99720.59;7398823;19;1548;-45
2023/11/24 08:21:54;;;;;;;;;;;;;;;21.74;57.84;99708.63;7398173;19;1363;-45
2023/11/24 08:24:25;;;;;;;;;;;;;;;21.79;57.89;99725.91;7400342;19;1340;-45
2023/11/24 08:26:54;;;;;;;;;;;;;;;21.69;57.66;99711.88;7399073;19;1858;-45
2023/11/24 08:29:22;;;;;;;;;;;;;;;21.76;57.80;99701.22;7397523;19;1772;-45
2023/11/24 08:31:52;;;;;;;;;;;;;;;21.75;57.73;99702.25;7399560;19;1429;-45
2023/11/24 08:34:20;;;;;;;;;;;;;;;21.76;57.91;99693.97;7399028;19;1663;-45
2023/11/24 08:36:49;;;;;;;;;;;;;;;21.82;57.75;99701.31;7394447;19;1574;-45
2023/11/24 08:39:17;;;;;;;;;;;;;;;21.63;57.07;99689.19;7392568;19;1457;-45
2023/11/24 08:41:52;;;;;;;;;;;;;;;21.50;56.55;99698.88;7394357;19;1591;-46
2023/11/24 08:44:24;;;;;;;;;;;;;;;21.44;56.48;99693.19;7398811;19;1572;-45
2023/11/24 08:46:53;;;;;;;;;;;;;;;21.41;56.62;99679.25;7393664;19;1845;-45
2023/11/24 08:49:22;;;;;;;;;;;;;;;21.36;56.85;99685.13;7396659;19;1614;-45
2023/11/24 08:51:50;;;;;;;;;;;;;;;21.44;56.72;99671.66;7396757;19;1723;-45
2023/11/24 08:54:18;;;;;;;;;;;;;;;21.35;56.95;99663.81;7397704;19;1422;-46
2023/11/24 08:56:47;;;;;;;;;;;;;;;21.30;57.21;99661.66;7380987;19;2076;-45
2023/11/24 08:59:18;;;;;;;;;;;;;;;21.29;56.97;99659.13;7397527;19;1384;-45
2023/11/24 09:01:49;;;;;;;;;;;;;;;21.31;57.11;99657.94;7394971;19;1373;-45
2023/11/24 09:04:22;;;;;;;;;;;;;;;21.31;57.29;99644.50;7396415;19;1471;-45
2023/11/24 09:06:50;;;;;;;;;;;;;;;21.35;57.02;99651.22;7397484;19;1227;-46
2023/11/24 09:09:18;;;;;;;;;;;;;;;21.43;57.10;99643.09;7391997;19;1836;-45
2023/11/24 09:11:47;;;;;;;;;;;;;;;21.43;57.31;99634.22;7396203;19;1536;-45
2023/11/24 09:14:18;;;;;;;;;;;;;;;21.48;57.13;99614.84;7392159;19;1542;-49
2023/11/24 09:16:47;;;;;;;;;;;;;;;21.58;56.88;99610.03;7393878;19;1525;-50
2023/11/24 09:19:15;;;;;;;;;;;;;;;21.64;56.64;99595.88;7392470;19;1394;-51
2023/11/24 09:21:44;;;;;;;;;;;;;;;21.62;56.90;99608.66;7397014;19;1580;-49
2023/11/24 09:24:14;;;;;;;;;;;;;;;21.60;56.89;99595.38;7392261;19;1410;-50
2023/11/24 09:26:44;;;;;;;;;;;;;;;21.60;56.85;99594.56;7395718;19;1468;-51
2023/11/24 09:29:12;;;;;;;;;;;;;;;21.55;57.15;99580.84;7392590;19;1858;-50
2023/11/24 09:31:43;;;;;;;;;;;;;;;21.51;57.33;99572.28;7396420;19;1476;-50
2023/11/24 09:34:11;;;;;;;;;;;;;;;21.53;57.38;99567.56;7395791;19;1549;-50
2023/11/24 09:36:41;;;;;;;;;;;;;;;21.54;57.41;99563.00;7394275;19;1381;-49
2023/11/24 09:39:10;;;;;;;;;;;;;;;21.58;57.43;99543.63;7396254;19;1568;-49
2023/11/24 09:41:42;;;;;;;;;;;;;;;21.62;57.70;99550.31;7395923;19;1493;-47
2023/11/24 09:44:12;;;;;;;;;;;;;;;21.68;57.81;99543.38;7395557;19;1892;-47
2023/11/24 09:46:43;;;;;;;;;;;;;;;21.64;58.31;99550.13;7392203;19;1354;-47
2023/11/24 09:49:12;;;;;;;;;;;;;;;21.65;58.13;99543.75;7394935;19;1853;-54
2023/11/24 09:51:41;;;;;;;;;;;;;;;21.56;58.53;99531.38;7395437;19;1441;-49
2023/11/24 09:54:10;;;;;;;;;;;;;;;21.54;58.71;99539.63;7394109;19;1569;-48
2023/11/24 09:56:40;;;;;;;;;;;;;;;21.53;58.69;99521.00;7379983;19;1728;-47
2023/11/24 09:59:09;;;;;;;;;;;;;;;21.55;58.73;99527.88;7395558;19;1228;-47
2023/11/24 10:01:38;;;;;;;;;;;;;;;21.58;58.36;99529.34;7395512;19;1907;-47
2023/11/24 10:04:10;;;;;;;;;;;;;;;21.48;58.68;99508.06;7396211;19;1457;-47
2023/11/24 10:06:41;;;;;;;;;;;;;;;21.50;58.84;99511.41;7395225;19;1468;-60
2023/11/24 10:09:10;;;;;;;;;;;;;;;21.43;58.81;99500.56;7394155;19;1865;-45
2023/11/24 10:11:39;;;;;;;;;;;;;;;21.52;58.60;99489.72;7395405;19;1559;-45
2023/11/24 10:14:11;;;;;;;;;;;;;;;21.62;58.67;99495.66;7393741;19;2133;-45
2023/11/24 10:16:40;;;;;;;;;;;;;;;21.63;58.74;99498.19;7393874;19;1464;-45
2023/11/24 10:19:14;;;;;;;;;;;;;;;21.52;58.82;99482.47;7395901;19;1398;-45
2023/11/24 10:21:45;;;;;;;;;;;;;;;21.53;58.93;99473.41;7395748;19;1573;-45
2023/11/24 10:24:13;;;;;;;;;;;;;;;21.53;58.79;99464.50;7392160;19;1498;-44
2023/11/24 10:26:44;;;;;;;;;;;;;;;21.50;59.22;99459.50;7394318;19;1559;-44
2023/11/24 10:29:12;;;;;;;;;;;;;;;21.08;59.26;99385.59;7393101;19;1849;-44
2023/11/24 10:31:41;;;;;;;;;;;;;;;21.43;59.35;99460.22;7394997;19;1444;-44
2023/11/24 10:34:12;;;;;;;;;;;;;;;21.42;59.07;99455.81;7393504;19;1831;-44
2023/11/24 10:36:41;;;;;;;;;;;;;;;21.44;58.91;99445.75;7393577;19;1450;-45
2023/11/24 10:39:12;;;;;;;;;;;;;;;21.55;58.71;99443.66;7394534;19;1522;-45
2023/11/24 10:41:45;;;;;;;;;;;;;;;21.53;58.35;99435.75;7394643;19;1619;-45
2023/11/24 10:44:14;;;;;;;;;;;;;;;21.06;59.70;99429.59;7392771;19;1437;-46
2023/11/24 10:46:45;;;;;;;;;;;;;;;20.69;60.90;99429.56;7392752;19;2028;-45
2023/11/24 10:49:22;;;;;;;;;;;;;;;20.45;61.43;99423.31;7389725;19;1866;-45
2023/11/24 10:51:54;;;;;;;;;;;;;;;20.34;61.61;99415.69;7392844;19;1539;-45
2023/11/24 10:54:26;;;;;;;;;;;;;;;20.22;61.95;99405.34;7392300;19;1501;-45
2023/11/24 10:56:58;;;;;;;;;;;;;;;20.24;62.26;99402.50;7378224;19;1719;-45
2023/11/24 10:59:29;;;;;;;;;;;;;;;20.58;61.44;99404.78;7391719;19;1513;-45
2023/11/24 11:01:57;;;;;;;;;;;;;;;20.95;60.96;99395.13;7393287;19;1458;-45
2023/11/24 11:04:29;;;;;;;;;;;;;;;20.66;62.79;99399.38;7391426;19;1528;-45
2023/11/24 11:07:04;;;;;;;;;;;;;;;20.47;63.12;99405.19;7392651;19;1223;-45
2023/11/24 11:09:47;;;;;;;;;;;;;;;20.32;63.55;99380.97;7388875;19;1866;-44
2023/11/24 11:12:30;;;;;;;;;;;;;;;20.18;63.97;99362.94;7390844;19;1739;-44
2023/11/24 11:14:59;;;;;;;;;;;;;;;20.50;63.27;99369.09;7391993;19;1466;-44
2023/11/24 11:17:27;;;;;;;;;;;;;;;20.78;62.53;99364.03;7377715;19;1527;-44
2023/11/24 11:20:02;;;;;;;;;;;;;;;20.72;62.75;99368.28;7370863;19;1379;-44
2023/11/24 11:22:31;;;;;;;;;;;;;;;20.42;63.51;99364.63;7388541;19;1469;-44
2023/11/24 11:25:14;;;;;;;;;;;;;;;20.18;62.57;99347.66;7377067;19;1481;-44
2023/11/24 11:27:43;;;;;;;;;;;;;;;20.06;63.30;99333.81;7385698;19;1564;-43
2023/11/24 11:30:15;;;;;;;;;;;;;;;20.28;62.68;99334.00;7387069;19;1853;-44
2023/11/24 11:32:44;;;;;;;;;;;;;;;20.61;62.14;99341.84;7391711;19;1577;-44
2023/11/24 11:35:15;;;;;;;;;;;;;;;20.58;62.94;99332.25;7392354;19;1439;-43
2023/11/24 11:37:43;;;;;;;;;;;;;;;20.36;63.36;99333.13;7391318;19;1928;-44
2023/11/24 11:40:19;;;;;;;;;;;;;;;20.22;64.08;99326.69;7392287;19;1826;-44
2023/11/24 11:42:58;;;;;;;;;;;;;;;20.13;64.04;99317.81;7388890;19;1571;-44
2023/11/24 11:45:29;;;;;;;;;;;;;;;20.51;62.73;99309.00;7390946;19;1466;-45
2023/11/24 11:47:56;;;;;;;;;;;;;;;20.68;62.78;99325.84;7389643;19;1847;-45
2023/11/24 11:50:27;;;;;;;;;;;;;;;20.48;63.94;99317.44;7323461;19;12326;-44
2023/11/24 11:53:00;;;;;;;;;;;;;;;20.31;64.35;99308.66;7329741;19;13404;-44
2023/11/24 11:55:30;;;;;;;;;;;;;;;20.11;64.28;99303.75;7390005;19;1399;-45
2023/11/24 11:58:00;;;;;;;;;;;;;;;20.09;64.00;99299.59;7375408;19;1493;-46
2023/11/24 12:00:28;;;;;;;;;;;;;;;20.50;63.71;99299.28;7385816;19;1490;-45
2023/11/24 12:02:57;;;;;;;;;;;;;;;20.71;63.41;99303.97;7387256;19;1501;-47
2023/11/24 12:05:28;;;;;;;;;;;;;;;20.48;64.14;99302.13;7387900;19;1700;-46
2023/11/24 12:07:57;;;;;;;;;;;;;;;20.26;64.84;99298.47;7389470;19;1484;-48
2023/11/24 12:10:29;;;;;;;;;;;;;;;20.16;65.43;99290.66;7388152;19;1473;-46
2023/11/24 12:13:03;;;;;;;;;;;;;;;20.06;65.36;99295.41;7389368;19;1462;-46
2023/11/24 12:15:34;;;;;;;;;;;;;;;20.37;64.96;99292.69;7388918;19;1958;-47
2023/11/24 12:18:02;;;;;;;;;;;;;;;20.68;64.07;99288.25;7387118;19;1470;-47
2023/11/24 12:20:34;;;;;;;;;;;;;;;20.44;64.95;99304.34;7388276;19;1484;-47
2023/11/24 12:23:04;;;;;;;;;;;;;;;20.27;65.30;99292.91;7388802;19;1147;-47
2023/11/24 12:25:32;;;;;;;;;;;;;;;20.12;65.62;99280.47;7389042;19;1833;-46
2023/11/24 12:28:01;;;;;;;;;;;;;;;20.04;65.61;99292.91;7387508;19;1493;-47
2023/11/24 12:30:30;;;;;;;;;;;;;;;20.10;65.41;99283.31;7386398;19;1877;-47
2023/11/24 12:32:59;;;;;;;;;;;;;;;20.37;64.73;99286.44;7386581;19;1466;-46
2023/11/24 12:35:28;;;;;;;;;;;;;;;20.41;64.93;99304.72;7390343;19;1435;-46
2023/11/24 12:37:59;;;;;;;;;;;;;;;20.26;65.21;99293.91;7397391;19;1500;-47
2023/11/24 12:40:27;;;;;;;;;;;;;;;20.17;65.50;99300.34;7395669;19;1262;-47
2023/11/24 12:43:00;;;;;;;;;;;;;;;20.09;65.72;99305.78;7389333;19;1873;-46
2023/11/24 12:45:29;;;;;;;;;;;;;;;20.05;65.63;99304.47;7395639;19;1419;-46
2023/11/24 12:48:05;;;;;;;;;;;;;;;20.20;65.31;99305.38;7395560;19;1547;-45
2023/11/24 12:50:34;;;;;;;;;;;;;;;20.62;64.44;99305.91;7393812;19;1849;-45
2023/11/24 12:53:05;;;;;;;;;;;;;;;20.46;64.76;99291.56;7395540;19;1481;-44
2023/11/24 12:55:33;;;;;;;;;;;;;;;20.31;64.91;99281.81;7395371;19;1501;-45
2023/11/24 12:58:01;;;;;;;;;;;;;;;20.11;65.47;99293.00;7380601;19;1486;-46
2023/11/24 13:00:29;;;;;;;;;;;;;;;20.01;65.71;99276.31;7395781;19;1429;-46
2023/11/24 13:02:58;;;;;;;;;;;;;;;20.03;65.63;99266.25;7395974;19;1576;-47